createdAt,value
2022-10-23T00:01:34.646Z,20.02
2022-10-23T00:04:04.994Z,20.04
2022-10-23T00:06:33.172Z,20.06
2022-10-23T00:09:01.140Z,20.09
2022-10-23T00:11:30.312Z,20.10
2022-10-23T00:13:59.265Z,20.10
2022-10-23T00:16:27.174Z,20.12
2022-10-23T00:18:55.381Z,20.14
2022-10-23T00:21:24.745Z,20.17
2022-10-23T00:23:52.610Z,20.16
2022-10-23T00:26:20.543Z,20.18
2022-10-23T00:28:50.026Z,20.18
2022-10-23T00:31:18.021Z,20.18
2022-10-23T00:33:46.192Z,20.18
2022-10-23T00:36:14.897Z,20.20
2022-10-23T00:38:44.120Z,20.17
2022-10-23T00:41:15.362Z,20.18
2022-10-23T00:43:57.171Z,20.18
2022-10-23T00:46:25.094Z,20.18
2022-10-23T00:48:52.968Z,20.20
2022-10-23T00:51:20.882Z,20.21
2022-10-23T00:54:01.075Z,20.21
2022-10-23T00:56:39.264Z,20.22
2022-10-23T00:59:07.177Z,20.27
2022-10-23T01:01:35.158Z,20.26
2022-10-23T01:04:03.226Z,20.26
2022-10-23T01:06:35.131Z,20.29
2022-10-23T01:09:09.385Z,20.31
2022-10-23T01:11:40.644Z,20.29
2022-10-23T01:14:13.399Z,20.32
2022-10-23T01:16:43.083Z,20.32
2022-10-23T01:19:13.666Z,20.34
2022-10-23T01:21:47.274Z,20.34
2022-10-23T01:24:20.515Z,20.30
2022-10-23T01:26:54.861Z,20.29
2022-10-23T01:29:26.754Z,20.27
2022-10-23T01:31:57.336Z,20.28
2022-10-23T01:34:28.217Z,20.25
2022-10-23T01:36:56.080Z,20.25
2022-10-23T01:39:25.546Z,20.27
2022-10-23T01:41:54.304Z,20.27
2022-10-23T01:44:25.117Z,20.26
2022-10-23T01:46:53.322Z,20.25
2022-10-23T01:49:21.268Z,20.25
2022-10-23T01:51:50.943Z,20.26
2022-10-23T01:54:19.014Z,20.26
2022-10-23T01:56:47.671Z,20.28
2022-10-23T01:59:16.806Z,20.26
2022-10-23T02:01:47.756Z,20.29
2022-10-23T02:04:18.588Z,20.27
2022-10-23T02:06:46.433Z,20.28
2022-10-23T02:09:14.600Z,20.31
2022-10-23T02:11:45.816Z,20.32
2022-10-23T02:14:17.075Z,20.32
2022-10-23T02:16:47.656Z,20.33
2022-10-23T02:19:18.593Z,20.38
2022-10-23T02:21:51.767Z,20.41
2022-10-23T02:24:21.240Z,20.42
2022-10-23T02:26:51.948Z,20.42
2022-10-23T02:29:20.952Z,20.43
2022-10-23T02:31:50.204Z,20.41
2022-10-23T02:34:18.085Z,20.38
2022-10-23T02:36:45.976Z,20.34
2022-10-23T02:39:13.819Z,20.30
2022-10-23T02:41:43.655Z,20.22
2022-10-23T02:44:24.089Z,20.16
2022-10-23T02:46:56.877Z,20.10
2022-10-23T02:49:26.879Z,20.03
2022-10-23T02:51:58.440Z,19.89
2022-10-23T02:54:35.587Z,19.95
2022-10-23T02:57:05.007Z,19.89
2022-10-23T02:59:35.378Z,19.82
2022-10-23T03:02:07.726Z,19.79
2022-10-23T03:04:36.363Z,19.79
2022-10-23T03:07:04.284Z,19.77
2022-10-23T03:09:32.224Z,19.75
2022-10-23T03:12:00.129Z,19.79
2022-10-23T03:14:27.996Z,19.78
2022-10-23T03:16:55.871Z,19.75
2022-10-23T03:19:25.129Z,19.79
2022-10-23T03:21:52.997Z,19.80
2022-10-23T03:24:20.867Z,19.82
2022-10-23T03:26:48.749Z,19.84
2022-10-23T03:29:16.870Z,19.84
2022-10-23T03:31:44.767Z,19.86
2022-10-23T03:34:13.907Z,19.86
2022-10-23T03:36:43.155Z,19.88
2022-10-23T03:39:11.054Z,19.86
2022-10-23T03:41:38.938Z,19.86
2022-10-23T03:44:06.800Z,19.84
2022-10-23T03:46:34.662Z,19.84
2022-10-23T03:49:02.587Z,19.83
2022-10-23T03:51:30.398Z,19.79
2022-10-23T03:53:59.661Z,19.78
2022-10-23T03:56:27.573Z,19.75
2022-10-23T03:58:55.464Z,19.75
2022-10-23T04:01:23.427Z,19.72
2022-10-23T04:03:51.369Z,19.72
2022-10-23T04:06:19.227Z,19.69
2022-10-23T04:08:47.219Z,19.69
2022-10-23T04:11:16.467Z,19.69
2022-10-23T04:13:44.346Z,19.69
2022-10-23T04:16:12.257Z,19.66
2022-10-23T04:18:41.487Z,19.64
2022-10-23T04:21:09.431Z,19.60
2022-10-23T04:23:37.405Z,19.57
2022-10-23T04:26:05.288Z,19.57
2022-10-23T04:28:34.495Z,19.52
2022-10-23T04:31:02.363Z,19.51
2022-10-23T04:33:30.244Z,19.48
2022-10-23T04:35:58.228Z,19.47
2022-10-23T04:38:26.185Z,19.45
2022-10-23T04:40:54.067Z,19.44
2022-10-23T04:43:21.924Z,19.43
2022-10-23T04:45:51.177Z,19.41
2022-10-23T04:48:19.084Z,19.40
2022-10-23T04:50:56.347Z,19.42
2022-10-23T04:53:24.439Z,19.38
2022-10-23T04:55:52.816Z,19.35
2022-10-23T04:58:20.746Z,19.32
2022-10-23T05:00:48.741Z,19.24
2022-10-23T05:03:18.248Z,19.32
2022-10-23T05:05:46.230Z,19.28
2022-10-23T05:08:17.151Z,19.27
2022-10-23T05:10:46.109Z,19.25
2022-10-23T05:13:14.049Z,19.22
2022-10-23T05:18:16.317Z,19.18
2022-10-23T05:20:45.524Z,19.14
2022-10-23T05:23:13.769Z,19.12
2022-10-23T05:25:41.799Z,19.11
2022-10-23T05:28:09.777Z,19.11
2022-10-23T05:30:37.669Z,19.09
2022-10-23T05:33:05.520Z,19.10
2022-10-23T05:35:33.373Z,19.10
2022-10-23T05:38:02.660Z,19.12
2022-10-23T05:40:30.571Z,19.11
2022-10-23T05:42:58.520Z,19.11
2022-10-23T05:45:26.381Z,19.09
2022-10-23T05:47:56.527Z,19.06
2022-10-23T05:50:26.653Z,19.01
2022-10-23T05:52:54.521Z,18.97
2022-10-23T05:55:23.837Z,18.94
2022-10-23T05:57:51.725Z,18.93
2022-10-23T06:00:19.746Z,18.93
2022-10-23T06:02:47.646Z,18.97
2022-10-23T06:05:15.563Z,18.99
2022-10-23T06:07:43.852Z,19.05
2022-10-23T06:10:11.928Z,19.13
2022-10-23T06:12:41.180Z,19.20
2022-10-23T06:15:10.391Z,19.26
2022-10-23T06:17:39.281Z,19.32
2022-10-23T06:20:08.470Z,19.37
2022-10-23T06:22:36.322Z,19.41
2022-10-23T06:25:04.216Z,19.43
2022-10-23T06:27:32.117Z,19.41
2022-10-23T06:30:01.393Z,19.38
2022-10-23T06:32:32.236Z,19.34
2022-10-23T06:35:00.081Z,19.30
2022-10-23T06:37:27.963Z,19.29
2022-10-23T06:39:55.815Z,19.27
2022-10-23T06:42:23.694Z,19.28
2022-10-23T06:44:51.595Z,19.29
2022-10-23T06:47:20.809Z,19.31
2022-10-23T06:49:48.871Z,19.33
2022-10-23T06:52:34.900Z,19.35
2022-10-23T06:55:04.945Z,19.25
2022-10-23T06:57:32.883Z,19.37
2022-10-23T07:00:00.719Z,19.35
2022-10-23T07:02:29.924Z,19.33
2022-10-23T07:04:57.847Z,19.32
2022-10-23T07:07:25.828Z,19.31
2022-10-23T07:09:53.659Z,19.33
2022-10-23T07:12:21.625Z,19.35
2022-10-23T07:14:49.524Z,19.35
2022-10-23T07:17:17.376Z,19.34
2022-10-23T07:19:47.849Z,19.33
2022-10-23T07:22:16.197Z,19.31
2022-10-23T07:24:44.176Z,19.29
2022-10-23T07:27:12.075Z,19.26
2022-10-23T07:29:39.968Z,19.25
2022-10-23T07:32:07.876Z,19.22
2022-10-23T07:34:36.913Z,19.17
2022-10-23T07:37:06.163Z,19.13
2022-10-23T07:39:34.100Z,19.10
2022-10-23T07:42:02.019Z,19.07
2022-10-23T07:44:29.860Z,19.03
2022-10-23T07:46:57.751Z,18.99
2022-10-23T07:49:25.625Z,18.95
2022-10-23T07:51:53.994Z,18.93
2022-10-23T07:54:23.334Z,18.91
2022-10-23T07:56:51.201Z,18.93
2022-10-23T07:59:19.042Z,18.99
2022-10-23T08:01:49.574Z,19.03
2022-10-23T08:04:21.308Z,19.09
2022-10-23T08:06:51.005Z,19.14
2022-10-23T08:09:21.803Z,19.14
2022-10-23T08:11:54.851Z,19.12
2022-10-23T08:14:26.324Z,19.09
2022-10-23T08:16:54.310Z,19.09
2022-10-23T08:19:24.026Z,19.13
2022-10-23T08:21:55.042Z,19.14
2022-10-23T08:24:26.019Z,19.11
2022-10-23T08:26:56.495Z,19.07
2022-10-23T08:29:25.364Z,19.06
2022-10-23T08:31:58.049Z,19.11
2022-10-23T08:34:29.358Z,19.19
2022-10-23T08:37:00.423Z,19.27
2022-10-23T08:39:30.973Z,19.37
2022-10-23T08:42:01.890Z,19.34
2022-10-23T08:44:33.342Z,19.52
2022-10-23T08:47:06.551Z,19.60
2022-10-23T08:49:47.548Z,19.68
2022-10-23T08:52:23.857Z,19.77
2022-10-23T08:55:02.487Z,19.82
2022-10-23T08:57:40.091Z,19.86
2022-10-23T09:00:14.842Z,19.90
2022-10-23T09:02:45.543Z,19.90
2022-10-23T09:05:17.080Z,19.99
2022-10-23T09:08:00.551Z,20.03
2022-10-23T09:10:51.840Z,20.06
2022-10-23T09:14:00.601Z,20.08
2022-10-23T09:16:43.088Z,20.12
2022-10-23T09:19:15.226Z,20.15
2022-10-23T09:21:47.796Z,20.18
2022-10-23T09:24:18.322Z,20.22
2022-10-23T09:26:49.922Z,20.25
2022-10-23T09:29:25.499Z,20.32
2022-10-23T09:31:56.538Z,20.24
2022-10-23T09:34:26.784Z,20.38
2022-10-23T09:36:57.814Z,20.44
2022-10-23T09:39:29.255Z,20.49
2022-10-23T09:41:58.684Z,20.54
2022-10-23T09:44:30.114Z,20.63
2022-10-23T09:47:02.369Z,20.67
2022-10-23T09:49:32.550Z,20.69
2022-10-23T09:52:04.712Z,20.73
2022-10-23T09:54:33.521Z,20.78
2022-10-23T09:57:05.067Z,20.82
2022-10-23T09:59:34.409Z,20.89
2022-10-23T10:02:04.083Z,20.94
2022-10-23T10:04:33.621Z,21.06
2022-10-23T10:07:05.958Z,21.13
2022-10-23T10:09:33.987Z,21.16
2022-10-23T10:12:12.861Z,21.21
2022-10-23T10:14:46.732Z,21.25
2022-10-23T10:17:19.501Z,21.36
2022-10-23T10:20:03.838Z,21.51
2022-10-23T10:22:36.789Z,21.63
2022-10-23T10:25:08.555Z,21.74
2022-10-23T10:27:43.605Z,21.81
2022-10-23T10:30:15.545Z,21.90
2022-10-23T10:32:46.691Z,22.06
2022-10-23T10:35:38.331Z,22.37
2022-10-23T10:38:17.846Z,22.53
2022-10-23T10:40:48.981Z,22.57
2022-10-23T10:43:25.549Z,22.58
2022-10-23T10:46:00.520Z,22.77
2022-10-23T10:48:36.923Z,22.62
2022-10-23T10:51:07.068Z,22.60
2022-10-23T10:53:40.483Z,22.90
2022-10-23T10:58:45.096Z,23.78
2022-10-23T11:01:17.010Z,24.21
2022-10-23T11:03:47.446Z,24.57
2022-10-23T11:06:17.406Z,24.87
2022-10-23T11:08:57.442Z,25.17
2022-10-23T11:11:29.147Z,25.45
2022-10-23T11:13:57.697Z,25.55
2022-10-23T11:16:27.611Z,25.59
2022-10-23T11:19:01.245Z,25.72
2022-10-23T11:21:31.972Z,25.85
2022-10-23T11:24:21.774Z,25.87
2022-10-23T11:26:57.380Z,25.86
2022-10-23T11:29:53.405Z,25.98
2022-10-23T11:32:56.396Z,25.86
2022-10-23T11:35:30.831Z,25.62
2022-10-23T11:38:00.711Z,25.26
2022-10-23T11:40:28.613Z,25.08
2022-10-23T11:42:56.518Z,24.92
2022-10-23T11:45:33.123Z,25.17
2022-10-23T11:48:03.324Z,25.74
2022-10-23T11:50:33.169Z,26.33
2022-10-23T11:53:14.850Z,26.92
2022-10-23T11:56:00.899Z,27.26
2022-10-23T11:58:32.176Z,27.15
2022-10-23T12:01:05.204Z,27.08
2022-10-23T12:03:50.604Z,26.73
2022-10-23T12:06:27.240Z,26.63
2022-10-23T12:08:56.396Z,26.90
2022-10-23T12:11:29.326Z,27.23
2022-10-23T12:13:57.168Z,27.56
2022-10-23T12:16:35.847Z,27.89
2022-10-23T12:19:17.942Z,28.24
2022-10-23T12:21:45.857Z,28.58
2022-10-23T12:24:31.960Z,28.92
2022-10-23T12:27:05.733Z,29.19
2022-10-23T12:29:47.716Z,29.46
2022-10-23T12:32:22.687Z,29.58
2022-10-23T12:35:00.351Z,29.75
2022-10-23T12:37:45.044Z,29.97
2022-10-23T12:40:12.926Z,30.09
2022-10-23T12:42:41.013Z,30.05
2022-10-23T12:45:18.833Z,29.68
2022-10-23T12:47:47.011Z,29.23
2022-10-23T12:50:20.861Z,28.90
2022-10-23T12:52:55.897Z,28.61
2022-10-23T12:55:24.023Z,28.49
2022-10-23T12:57:51.912Z,28.30
2022-10-23T13:00:21.239Z,28.10
2022-10-23T13:02:58.839Z,28.03
2022-10-23T13:05:28.149Z,28.21
2022-10-23T13:07:56.024Z,28.54
2022-10-23T13:10:24.142Z,28.93
2022-10-23T13:12:54.499Z,29.38
2022-10-23T13:15:22.955Z,29.34
2022-10-23T13:18:01.606Z,29.07
2022-10-23T13:20:31.775Z,28.94
2022-10-23T13:23:01.658Z,28.58
2022-10-23T13:25:30.864Z,27.98
2022-10-23T13:28:17.789Z,27.21
2022-10-23T13:30:46.335Z,26.50
2022-10-23T13:33:23.952Z,25.87
2022-10-23T13:35:59.589Z,25.35
2022-10-23T13:38:32.108Z,24.93
2022-10-23T13:41:00.700Z,24.53
2022-10-23T13:43:29.307Z,24.27
2022-10-23T13:45:57.429Z,24.02
2022-10-23T13:48:25.667Z,23.85
2022-10-23T13:50:53.692Z,23.65
2022-10-23T13:53:22.972Z,23.52
2022-10-23T13:55:57.832Z,23.39
2022-10-23T13:58:26.927Z,23.26
2022-10-23T14:00:55.187Z,23.13
2022-10-23T14:03:26.317Z,23.02
2022-10-23T14:05:56.096Z,22.88
2022-10-23T14:08:25.317Z,22.84
2022-10-23T14:10:53.318Z,22.73
2022-10-23T14:13:21.222Z,22.64
2022-10-23T14:15:54.530Z,22.55
2022-10-23T14:18:22.521Z,22.46
2022-10-23T14:20:50.453Z,22.35
2022-10-23T14:23:21.318Z,22.27
2022-10-23T14:25:52.425Z,22.16
2022-10-23T14:28:21.746Z,22.15
2022-10-23T14:30:49.753Z,22.11
2022-10-23T14:33:17.592Z,22.06
2022-10-23T14:35:45.456Z,22.03
2022-10-23T14:38:15.487Z,22.00
2022-10-23T14:40:43.371Z,21.93
2022-10-23T14:43:12.842Z,21.86
2022-10-23T14:45:40.744Z,21.81
2022-10-23T14:48:08.648Z,21.77
2022-10-23T14:50:37.445Z,21.73
2022-10-23T14:53:05.321Z,21.65
2022-10-23T14:55:33.164Z,21.58
2022-10-23T14:58:01.227Z,21.44
2022-10-23T15:00:33.115Z,21.33
2022-10-23T15:03:00.988Z,21.12
2022-10-23T15:05:28.882Z,21.02
2022-10-23T15:07:57.066Z,20.89
2022-10-23T15:10:24.937Z,20.75
2022-10-23T15:12:52.966Z,20.59
2022-10-23T15:15:22.362Z,20.50
2022-10-23T15:17:51.708Z,20.41
2022-10-23T15:20:19.792Z,20.35
2022-10-23T15:22:49.847Z,20.26
2022-10-23T15:25:18.198Z,20.26
2022-10-23T15:27:46.346Z,20.20
2022-10-23T15:30:14.593Z,20.21
2022-10-23T15:32:42.455Z,20.20
2022-10-23T15:35:14.816Z,20.21
2022-10-23T15:37:42.923Z,20.21
2022-10-23T15:40:11.736Z,20.23
2022-10-23T15:42:39.633Z,20.19
2022-10-23T15:45:08.605Z,20.22
2022-10-23T15:47:36.451Z,20.25
2022-10-23T15:50:04.576Z,20.29
2022-10-23T15:52:33.840Z,20.30
2022-10-23T15:55:01.692Z,20.21
2022-10-23T15:57:31.189Z,20.32
2022-10-23T15:59:59.124Z,20.33
2022-10-23T16:02:27.091Z,20.31
2022-10-23T16:04:55.037Z,20.33
2022-10-23T16:07:23.044Z,20.33
2022-10-23T16:09:52.333Z,20.32
2022-10-23T16:12:20.234Z,20.31
2022-10-23T16:14:48.170Z,20.32
2022-10-23T16:19:49.073Z,20.24
2022-10-23T16:22:17.520Z,20.27
2022-10-23T16:24:45.401Z,20.25
2022-10-23T16:27:17.234Z,20.24
2022-10-23T16:29:46.172Z,20.21
2022-10-23T16:32:14.025Z,20.18
2022-10-23T16:34:41.954Z,20.18
2022-10-23T16:37:09.843Z,20.19
2022-10-23T16:39:37.896Z,20.16
2022-10-23T16:42:06.023Z,20.14
2022-10-23T16:44:35.350Z,20.12
2022-10-23T16:47:03.209Z,20.12
2022-10-23T16:49:32.232Z,20.12
2022-10-23T16:52:00.148Z,20.10
2022-10-23T16:54:27.975Z,20.06
2022-10-23T16:56:55.852Z,20.04
2022-10-23T16:59:23.724Z,20.03
2022-10-23T17:01:53.302Z,20.01
2022-10-23T17:04:21.348Z,19.98
2022-10-23T17:06:49.237Z,19.96
2022-10-23T17:09:19.291Z,19.90
2022-10-23T17:11:48.014Z,19.94
2022-10-23T17:14:17.473Z,19.89
2022-10-23T17:16:49.247Z,19.80
2022-10-23T17:19:43.831Z,19.71
2022-10-23T17:22:10.579Z,19.60
2022-10-23T17:24:38.788Z,19.54
2022-10-23T17:27:06.655Z,19.51
2022-10-23T17:29:34.560Z,19.52
2022-10-23T17:32:03.263Z,19.55
2022-10-23T17:34:32.537Z,19.60
2022-10-23T17:37:00.412Z,19.66
2022-10-23T17:39:29.253Z,19.69
2022-10-23T17:41:57.174Z,19.71
2022-10-23T17:44:25.066Z,19.71
2022-10-23T17:46:54.396Z,19.73
2022-10-23T17:49:22.367Z,19.72
2022-10-23T17:51:53.419Z,19.57
2022-10-23T17:54:21.488Z,19.67
2022-10-23T17:56:49.346Z,19.66
2022-10-23T17:59:19.013Z,19.66
2022-10-23T18:01:48.285Z,19.66
2022-10-23T18:04:16.880Z,19.64
2022-10-23T18:06:45.757Z,19.61
2022-10-23T18:09:15.024Z,19.58
2022-10-23T18:11:46.887Z,19.55
2022-10-23T18:14:15.975Z,19.48
2022-10-23T18:16:45.515Z,19.44
2022-10-23T18:19:13.466Z,19.39
2022-10-23T18:21:41.378Z,19.33
2022-10-23T18:24:09.455Z,19.24
2022-10-23T18:26:39.259Z,19.17
2022-10-23T18:29:08.686Z,19.11
2022-10-23T18:31:37.410Z,19.04
2022-10-23T18:34:07.590Z,18.97
2022-10-23T18:36:36.319Z,18.92
2022-10-23T18:39:04.424Z,18.87
2022-10-23T18:41:34.087Z,18.81
2022-10-23T18:44:03.533Z,18.76
2022-10-23T18:46:31.531Z,18.67
2022-10-23T18:48:59.493Z,18.64
2022-10-23T18:51:29.099Z,18.60
2022-10-23T18:53:57.011Z,18.60
2022-10-23T18:56:26.720Z,18.62
2022-10-23T18:58:55.585Z,18.67
2022-10-23T19:01:25.324Z,18.70
2022-10-23T19:03:53.451Z,18.73
2022-10-23T19:06:21.763Z,18.71
2022-10-23T19:08:49.749Z,18.69
2022-10-23T19:11:18.259Z,18.58
2022-10-23T19:13:46.163Z,18.72
2022-10-23T19:16:15.551Z,18.74
2022-10-23T19:18:46.379Z,18.72
2022-10-23T19:21:14.211Z,18.70
2022-10-23T19:23:42.223Z,18.64
2022-10-23T19:26:12.411Z,18.62
2022-10-23T19:28:42.359Z,18.60
2022-10-23T19:31:10.531Z,18.55
2022-10-23T19:33:38.948Z,18.48
2022-10-23T19:36:13.916Z,18.41
2022-10-23T19:38:42.619Z,18.31
2022-10-23T19:41:10.604Z,18.23
2022-10-23T19:43:38.781Z,18.14
2022-10-23T19:46:09.489Z,18.08
2022-10-23T19:48:42.458Z,18.02
2022-10-23T19:51:12.947Z,17.97
2022-10-23T19:53:41.973Z,17.92
2022-10-23T19:56:11.088Z,17.89
2022-10-23T19:58:39.048Z,17.85
2022-10-23T20:01:11.386Z,17.82
2022-10-23T20:03:39.668Z,17.77
2022-10-23T20:06:11.652Z,17.71
2022-10-23T20:08:39.573Z,17.53
2022-10-23T20:11:07.655Z,17.64
2022-10-23T20:13:35.737Z,17.64
2022-10-23T20:16:03.584Z,17.63
2022-10-23T20:18:31.499Z,17.64
2022-10-23T20:21:02.049Z,17.63
2022-10-23T20:23:31.348Z,17.63
2022-10-23T20:26:05.382Z,17.63
2022-10-23T20:28:33.307Z,17.61
2022-10-23T20:31:03.216Z,17.60
2022-10-23T20:33:31.033Z,17.55
2022-10-23T20:35:58.929Z,17.52
2022-10-23T20:38:26.809Z,17.49
2022-10-23T20:41:00.348Z,17.48
2022-10-23T20:43:28.269Z,17.42
2022-10-23T20:45:56.188Z,17.36
2022-10-23T20:48:24.052Z,17.31
2022-10-23T20:50:51.891Z,17.27
2022-10-23T20:53:19.756Z,17.26
2022-10-23T20:55:47.662Z,17.22
2022-10-23T20:58:16.917Z,17.20
2022-10-23T21:00:44.830Z,17.16
2022-10-23T21:03:12.740Z,17.15
2022-10-23T21:05:40.614Z,17.17
2022-10-23T21:08:08.501Z,17.21
2022-10-23T21:10:36.356Z,17.22
2022-10-23T21:13:04.280Z,17.29
2022-10-23T21:15:33.574Z,17.39
2022-10-23T21:18:08.023Z,17.45
2022-10-23T21:20:47.167Z,17.46
2022-10-23T21:23:15.047Z,17.47
2022-10-23T21:25:43.016Z,17.49
2022-10-23T21:28:11.277Z,17.55
2022-10-23T21:30:41.124Z,17.62
2022-10-23T21:33:09.016Z,17.67
2022-10-23T21:35:43.152Z,17.68
2022-10-23T21:38:20.287Z,17.66
2022-10-23T21:40:48.193Z,17.63
2022-10-23T21:43:16.069Z,17.56
2022-10-23T21:45:45.301Z,17.55
2022-10-23T21:48:13.180Z,17.57
2022-10-23T21:50:41.067Z,17.59
2022-10-23T21:53:08.975Z,17.56
2022-10-23T21:55:37.302Z,17.49
2022-10-23T21:58:05.201Z,17.40
2022-10-23T22:00:33.102Z,17.31
2022-10-23T22:03:02.512Z,17.23
2022-10-23T22:05:30.571Z,17.16
2022-10-23T22:07:58.422Z,17.11
2022-10-23T22:10:26.389Z,17.09
2022-10-23T22:12:54.258Z,17.07
2022-10-23T22:15:22.209Z,17.07
2022-10-23T22:17:50.104Z,17.09
2022-10-23T22:20:19.562Z,17.16
2022-10-23T22:22:47.445Z,17.22
2022-10-23T22:25:15.320Z,17.29
2022-10-23T22:27:43.518Z,17.35
2022-10-23T22:30:12.901Z,17.42
2022-10-23T22:32:40.769Z,17.47
2022-10-23T22:35:09.345Z,17.49
2022-10-23T22:37:38.725Z,17.49
2022-10-23T22:40:08.559Z,17.52
2022-10-23T22:42:38.518Z,17.52
2022-10-23T22:45:07.287Z,17.58
2022-10-23T22:47:35.136Z,17.62
2022-10-23T22:50:03.178Z,17.66
2022-10-23T22:52:31.039Z,17.73
2022-10-23T22:55:00.361Z,17.79
2022-10-23T22:57:28.240Z,17.83
2022-10-23T22:59:56.120Z,17.85
2022-10-23T23:02:23.989Z,17.89
2022-10-23T23:04:51.992Z,17.89
2022-10-23T23:07:19.884Z,17.89
2022-10-23T23:09:47.749Z,17.89
2022-10-23T23:12:17.009Z,17.89
2022-10-23T23:14:44.936Z,17.86
2022-10-23T23:17:12.835Z,17.86
2022-10-23T23:19:40.714Z,17.84
2022-10-23T23:22:08.737Z,17.85
2022-10-23T23:24:36.586Z,17.84
2022-10-23T23:27:04.493Z,17.87
2022-10-23T23:29:33.708Z,17.90
2022-10-23T23:32:01.580Z,17.93
2022-10-23T23:34:29.635Z,17.96
2022-10-23T23:36:57.495Z,17.99
2022-10-23T23:39:26.093Z,18.02
2022-10-23T23:41:54.005Z,18.05
2022-10-23T23:44:21.888Z,18.06
2022-10-23T23:46:51.135Z,18.09
2022-10-23T23:49:18.993Z,18.09
2022-10-23T23:51:46.912Z,18.08
2022-10-23T23:54:14.809Z,18.09
2022-10-23T23:56:42.703Z,18.10
2022-10-23T23:59:10.538Z,18.11
